Time;durP1;ratioP1;P1;durP2;ratioP2;P2;SDS_P1;SDS_P2;PMS_P1;PMS_P2;Temp;Humidity;BMP_temperature;BMP_pressure;BME280_temperature;BME280_humidity;BME280_pressure;Samples;Min_cycle;Max_cycle;Signal;HPM_P1;HPM_P2
2021/12/18 00:01:03;;;;;;;1999.90;999.90;;;7.60;99.90;;;;;;5066456;28;20537;-70
2021/12/18 00:03:30;;;;;;;1999.90;999.90;;;7.60;99.90;;;;;;5061188;28;21173;-69
2021/12/18 00:05:56;;;;;;;1999.90;999.90;;;7.70;99.90;;;;;;5070636;28;20477;-69
2021/12/18 00:08:23;;;;;;;1999.90;999.90;;;7.70;99.90;;;;;;5060446;28;21001;-69
2021/12/18 00:10:52;;;;;;;1999.90;999.90;;;7.70;99.90;;;;;;5053642;28;20446;-69
2021/12/18 00:13:19;;;;;;;1999.90;999.90;;;7.70;99.90;;;;;;5069225;28;20502;-68
2021/12/18 00:15:46;;;;;;;1999.90;999.90;;;7.70;99.90;;;;;;5058737;28;20461;-69
2021/12/18 00:18:13;;;;;;;1999.90;999.90;;;7.70;99.90;;;;;;5069843;28;20496;-69
2021/12/18 00:20:39;;;;;;;1999.90;999.90;;;7.60;99.90;;;;;;5062267;28;20457;-70
2021/12/18 00:23:06;;;;;;;1999.90;999.90;;;7.60;99.90;;;;;;5070773;28;20450;-69
2021/12/18 00:25:34;;;;;;;1999.90;999.90;;;7.60;99.90;;;;;;5065539;28;20461;-69
2021/12/18 00:28:02;;;;;;;1999.90;999.90;;;7.60;99.90;;;;;;5062505;28;20477;-69
2021/12/18 00:30:28;;;;;;;1999.90;999.90;;;7.60;99.90;;;;;;5057520;28;20458;-69
2021/12/18 00:32:55;;;;;;;1999.90;999.90;;;7.60;99.90;;;;;;5057950;28;20491;-69
2021/12/18 00:35:22;;;;;;;1999.90;999.90;;;7.70;99.90;;;;;;5065168;28;20481;-69
2021/12/18 00:37:48;;;;;;;1999.90;999.90;;;7.60;99.90;;;;;;5070138;28;20950;-70
2021/12/18 00:40:21;;;;;;;1999.90;999.90;;;7.60;99.90;;;;;;5068350;28;20501;-69
2021/12/18 00:42:51;;;;;;;1999.90;999.90;;;7.60;99.90;;;;;;5057245;28;20445;-69
2021/12/18 00:45:19;;;;;;;1999.90;999.90;;;7.60;99.90;;;;;;5060662;28;21048;-69
2021/12/18 00:47:47;;;;;;;1999.90;999.90;;;7.60;99.90;;;;;;5053456;28;20481;-67
2021/12/18 00:50:16;;;;;;;1999.90;999.90;;;7.70;99.90;;;;;;5051871;28;20531;-69
2021/12/18 00:52:43;;;;;;;1999.90;999.90;;;7.70;99.90;;;;;;5051777;28;20446;-68
2021/12/18 00:55:10;;;;;;;1999.90;999.90;;;7.70;99.90;;;;;;5067638;28;20476;-69
2021/12/18 00:57:37;;;;;;;1999.90;999.90;;;7.70;99.90;;;;;;5054142;28;20450;-66
2021/12/18 01:00:06;;;;;;;1999.90;999.90;;;7.70;99.90;;;;;;5064169;28;20454;-68
2021/12/18 01:02:34;;;;;;;1999.90;999.90;;;7.70;99.90;;;;;;5066868;28;21019;-69
2021/12/18 01:05:01;;;;;;;1999.90;999.90;;;7.70;99.90;;;;;;5056537;28;20469;-70
2021/12/18 01:07:27;;;;;;;1999.90;999.90;;;7.70;99.90;;;;;;5071716;28;20477;-69
2021/12/18 01:10:10;;;;;;;1999.90;999.90;;;7.70;99.90;;;;;;5051268;28;20484;-69
2021/12/18 01:12:40;;;;;;;1999.90;999.90;;;7.80;99.90;;;;;;5052755;28;20453;-68
2021/12/18 01:15:17;;;;;;;1999.90;999.90;;;7.80;99.90;;;;;;5051638;28;20505;-69
2021/12/18 01:23:15;;;;;;;1999.90;999.90;;;7.80;99.90;;;;;;5075812;28;20826;-69
2021/12/18 01:25:42;;;;;;;1999.90;999.90;;;7.90;99.90;;;;;;5062107;28;20894;-69
2021/12/18 01:28:09;;;;;;;1999.90;999.90;;;7.90;99.90;;;;;;5058696;28;20984;-69
2021/12/18 01:30:35;;;;;;;1999.90;999.90;;;7.80;99.90;;;;;;5054438;28;20454;-69
2021/12/18 01:33:04;;;;;;;1999.90;999.90;;;7.90;99.90;;;;;;5053889;28;20500;-69
2021/12/18 01:35:30;;;;;;;1999.90;999.90;;;7.80;99.90;;;;;;5054058;28;20478;-69
2021/12/18 01:37:58;;;;;;;1999.90;999.90;;;7.80;99.90;;;;;;5070817;28;20450;-69
2021/12/18 01:40:25;;;;;;;1999.90;999.90;;;7.80;99.90;;;;;;5089083;22;20525;-71
2021/12/18 01:45:47;;;;;;;1999.90;999.90;;;7.80;99.90;;;;;;5089298;28;20982;-72
2021/12/18 01:51:19;;;;;;;1999.90;999.90;;;7.80;99.90;;;;;;5089677;28;21043;-71
2021/12/18 01:53:46;;;;;;;1999.90;999.90;;;7.80;99.90;;;;;;5089299;28;20959;-72
2021/12/18 01:56:13;;;;;;;1999.90;999.90;;;7.80;99.90;;;;;;5088880;28;20452;-72
2021/12/18 01:58:40;;;;;;;1999.90;999.90;;;7.70;99.90;;;;;;5089570;28;20501;-70
2021/12/18 02:01:07;;;;;;;1999.90;999.90;;;7.80;99.90;;;;;;5089348;28;20471;-71
2021/12/18 02:03:35;;;;;;;1999.90;999.90;;;7.80;99.90;;;;;;5087887;28;20445;-72
2021/12/18 02:06:02;;;;;;;1999.90;999.90;;;7.80;99.90;;;;;;5089600;28;20482;-72
2021/12/18 02:08:32;;;;;;;1999.90;999.90;;;7.80;99.90;;;;;;5088947;28;21022;-72
2021/12/18 02:11:09;;;;;;;1999.90;999.90;;;7.80;99.90;;;;;;5088105;28;20487;-72
2021/12/18 02:13:57;;;;;;;1999.90;999.90;;;7.80;99.90;;;;;;5089472;28;20506;-70
2021/12/18 02:21:55;;;;;;;1999.90;999.90;;;7.80;99.90;;;;;;5091030;28;20988;-72
2021/12/18 02:24:25;;;;;;;1999.90;999.90;;;7.80;99.90;;;;;;5093172;28;20495;-71
2021/12/18 02:26:52;;;;;;;1999.90;999.90;;;7.80;99.90;;;;;;5093142;28;20935;-72
2021/12/18 02:29:18;;;;;;;1999.90;999.90;;;7.80;99.90;;;;;;5094060;28;20475;-71
2021/12/18 02:31:46;;;;;;;1999.90;999.90;;;7.80;99.90;;;;;;5081011;28;20468;-72
2021/12/18 02:34:17;;;;;;;1999.90;999.90;;;7.70;99.90;;;;;;5089161;28;20456;-71
2021/12/18 02:36:47;;;;;;;1999.90;999.90;;;7.60;99.90;;;;;;5090026;28;20507;-72
2021/12/18 02:39:24;;;;;;;1999.90;999.90;;;7.60;99.90;;;;;;5090698;28;20526;-72
2021/12/18 02:42:08;;;;;;;1999.90;999.90;;;7.50;99.90;;;;;;5089207;28;20474;-72
2021/12/18 02:44:35;;;;;;;1999.90;999.90;;;7.50;99.90;;;;;;5087112;28;20885;-71
2021/12/18 02:47:03;;;;;;;1999.90;999.90;;;7.50;99.90;;;;;;5089819;28;20440;-72
2021/12/18 02:49:29;;;;;;;1999.90;999.90;;;7.50;99.90;;;;;;5090913;28;20475;-72
2021/12/18 02:51:56;;;;;;;1999.90;999.90;;;7.40;99.90;;;;;;5089331;28;20476;-71
2021/12/18 02:54:25;;;;;;;1999.90;999.90;;;7.30;99.90;;;;;;5089898;28;20460;-71
2021/12/18 02:56:52;;;;;;;1999.90;999.90;;;7.30;99.90;;;;;;5090792;28;20460;-71
2021/12/18 02:59:19;;;;;;;1999.90;999.90;;;7.30;99.90;;;;;;5090324;28;20490;-72
2021/12/18 03:01:45;;;;;;;1999.90;999.90;;;7.20;99.90;;;;;;5090275;28;20480;-72
2021/12/18 03:04:18;;;;;;;1999.90;999.90;;;7.30;99.90;;;;;;5090534;28;20498;-72
2021/12/18 03:06:48;;;;;;;1999.90;999.90;;;7.30;99.90;;;;;;5090055;28;20460;-71
2021/12/18 03:09:45;;;;;;;1999.90;999.90;;;7.20;99.90;;;;;;5091446;28;21062;-72
2021/12/18 03:23:28;;;;;;;1999.90;999.90;;;7.20;99.90;;;;;;5092227;28;20799;-72
2021/12/18 03:25:57;;;;;;;1999.90;999.90;;;7.30;99.90;;;;;;5091644;28;20444;-72
2021/12/18 03:28:25;;;;;;;1999.90;999.90;;;7.30;99.90;;;;;;5093059;28;20472;-71
2021/12/18 03:30:52;;;;;;;1999.90;999.90;;;7.30;99.90;;;;;;5093264;28;20648;-72
2021/12/18 03:33:19;;;;;;;1999.90;999.90;;;7.30;99.90;;;;;;5094402;28;20437;-70
2021/12/18 03:35:46;;;;;;;1999.90;999.90;;;7.30;99.90;;;;;;5096832;28;20440;-74
2021/12/18 03:38:13;;;;;;;1999.90;999.90;;;7.30;99.90;;;;;;5098243;28;20428;-71
2021/12/18 03:40:40;;;;;;;1999.90;999.90;;;7.30;99.90;;;;;;5097687;28;20472;-72
2021/12/18 03:43:06;;;;;;;1999.90;999.90;;;7.30;99.90;;;;;;5097579;28;20952;-71
2021/12/18 03:45:34;;;;;;;1999.90;999.90;;;7.30;99.90;;;;;;5097237;28;20444;-72
2021/12/18 03:48:01;;;;;;;1999.90;999.90;;;7.30;99.90;;;;;;5097172;28;20444;-71
2021/12/18 03:50:28;;;;;;;1999.90;999.90;;;7.30;99.90;;;;;;5093405;28;20494;-72
2021/12/18 03:52:55;;;;;;;1999.90;999.90;;;7.30;99.90;;;;;;5091854;28;20456;-71
2021/12/18 03:55:22;;;;;;;1999.90;999.90;;;7.30;99.90;;;;;;5090602;28;20436;-72
2021/12/18 03:57:48;;;;;;;1999.90;999.90;;;7.30;99.90;;;;;;5094270;28;20447;-72
2021/12/18 04:00:17;;;;;;;1999.90;999.90;;;7.30;99.90;;;;;;5093283;28;20529;-71
2021/12/18 04:02:46;;;;;;;1999.90;999.90;;;7.30;99.90;;;;;;5093329;28;20452;-72
2021/12/18 04:05:13;;;;;;;1999.90;999.90;;;7.20;99.90;;;;;;5092653;28;20539;-70
2021/12/18 04:07:42;;;;;;;1999.90;999.90;;;7.20;99.90;;;;;;5093144;28;20436;-71
2021/12/18 04:10:10;;;;;;;1999.90;999.90;;;7.20;99.90;;;;;;5092774;28;20574;-72
2021/12/18 04:12:37;;;;;;;1999.90;999.90;;;7.20;99.90;;;;;;5092193;28;21017;-71
2021/12/18 04:15:04;;;;;;;1999.90;999.90;;;7.20;99.90;;;;;;5093216;28;20521;-71
2021/12/18 04:17:31;;;;;;;1999.90;999.90;;;7.20;99.90;;;;;;5094386;28;20445;-72
2021/12/18 04:19:59;;;;;;;1999.90;999.90;;;7.20;99.90;;;;;;5095703;28;20956;-73
2021/12/18 04:22:26;;;;;;;1999.90;999.90;;;7.20;99.90;;;;;;5096805;28;20436;-72
2021/12/18 04:24:52;;;;;;;1999.90;999.90;;;7.20;99.90;;;;;;5097783;28;20498;-71
2021/12/18 04:27:19;;;;;;;1999.90;999.90;;;7.20;99.90;;;;;;5097135;28;20502;-72
2021/12/18 04:29:46;;;;;;;1999.90;999.90;;;7.20;99.90;;;;;;5097306;28;20491;-72
2021/12/18 04:32:13;;;;;;;1999.90;999.90;;;7.20;99.90;;;;;;5094922;28;20487;-72
2021/12/18 04:34:39;;;;;;;1999.90;999.90;;;7.20;99.90;;;;;;5091498;28;20960;-72
2021/12/18 04:37:07;;;;;;;1999.90;999.90;;;7.20;99.90;;;;;;5090485;28;20798;-71
2021/12/18 04:39:34;;;;;;;1999.90;999.90;;;7.20;99.90;;;;;;5090359;28;20441;-71
2021/12/18 04:42:00;;;;;;;1999.90;999.90;;;7.20;99.90;;;;;;5091032;28;20476;-72
2021/12/18 04:44:27;;;;;;;1999.90;999.90;;;7.30;99.90;;;;;;5089969;28;20474;-70
2021/12/18 04:46:54;;;;;;;1999.90;999.90;;;7.30;99.90;;;;;;5091345;28;20501;-71
2021/12/18 04:49:21;;;;;;;1999.90;999.90;;;7.30;99.90;;;;;;5091846;28;20498;-71
2021/12/18 04:51:47;;;;;;;1999.90;999.90;;;7.30;99.90;;;;;;5092399;28;20464;-71
2021/12/18 04:54:15;;;;;;;1999.90;999.90;;;7.30;99.90;;;;;;5092442;28;20457;-72
2021/12/18 04:56:42;;;;;;;1999.90;999.90;;;7.20;99.90;;;;;;5093581;28;21760;-70
2021/12/18 04:59:09;;;;;;;1999.90;999.90;;;7.20;99.90;;;;;;5091434;28;20856;-72
2021/12/18 05:01:36;;;;;;;1999.90;999.90;;;7.20;99.90;;;;;;5090092;28;20464;-71
2021/12/18 05:04:04;;;;;;;1999.90;999.90;;;7.30;99.90;;;;;;5090673;28;20456;-73
2021/12/18 05:06:32;;;;;;;1999.90;999.90;;;7.30;99.90;;;;;;5091666;28;20464;-72
2021/12/18 05:08:58;;;;;;;1999.90;999.90;;;7.30;99.90;;;;;;5090815;28;20534;-72
2021/12/18 05:11:26;;;;;;;1999.90;999.90;;;7.30;99.90;;;;;;5092513;28;20469;-71
2021/12/18 05:13:53;;;;;;;1999.90;999.90;;;7.30;99.90;;;;;;5090384;28;20882;-73
2021/12/18 05:16:20;;;;;;;1999.90;999.90;;;7.20;99.90;;;;;;5091093;28;20453;-72
2021/12/18 05:18:46;;;;;;;1999.90;999.90;;;7.30;99.90;;;;;;5091557;28;20517;-71
2021/12/18 05:21:13;;;;;;;1999.90;999.90;;;7.30;99.90;;;;;;5089965;28;21003;-71
2021/12/18 05:23:40;;;;;;;1999.90;999.90;;;7.30;99.90;;;;;;5090112;28;20853;-72
2021/12/18 05:26:06;;;;;;;1999.90;999.90;;;7.30;99.90;;;;;;5090343;28;20510;-71
2021/12/18 05:28:34;;;;;;;1999.90;999.90;;;7.30;99.90;;;;;;5090277;28;20445;-72
2021/12/18 05:31:01;;;;;;;1999.90;999.90;;;7.30;99.90;;;;;;5089173;28;20518;-71
2021/12/18 05:33:28;;;;;;;1999.90;999.90;;;7.30;99.90;;;;;;5089999;28;20449;-70
2021/12/18 05:35:54;;;;;;;1999.90;999.90;;;7.20;99.90;;;;;;5089612;28;20514;-70
2021/12/18 05:38:21;;;;;;;1999.90;999.90;;;7.30;99.90;;;;;;5089336;28;20471;-70
2021/12/18 05:40:48;;;;;;;1999.90;999.90;;;7.30;99.90;;;;;;5088852;28;20537;-71
2021/12/18 05:43:14;;;;;;;1999.90;999.90;;;7.30;99.90;;;;;;5089782;28;20557;-73
2021/12/18 05:45:42;;;;;;;1999.90;999.90;;;7.30;99.90;;;;;;5089726;28;20457;-72
2021/12/18 05:48:09;;;;;;;1999.90;999.90;;;7.30;99.90;;;;;;5089382;28;20448;-72
2021/12/18 05:50:36;;;;;;;1999.90;999.90;;;7.30;99.90;;;;;;5088467;28;20534;-71
2021/12/18 05:53:03;;;;;;;1999.90;999.90;;;7.30;99.90;;;;;;5088529;28;20490;-71
2021/12/18 05:55:31;;;;;;;1999.90;999.90;;;7.30;99.90;;;;;;5090049;28;20449;-71
2021/12/18 05:57:57;;;;;;;1999.90;999.90;;;7.30;99.90;;;;;;5089556;28;20494;-73
2021/12/18 06:00:24;;;;;;;1999.90;999.90;;;7.40;99.90;;;;;;5089093;28;20506;-71
2021/12/18 06:02:52;;;;;;;1999.90;999.90;;;7.30;99.90;;;;;;5089683;28;20506;-72
2021/12/18 06:05:19;;;;;;;1999.90;999.90;;;7.40;99.90;;;;;;5087524;28;20474;-72
2021/12/18 06:07:55;;;;;;;1999.90;999.90;;;7.40;99.90;;;;;;5088688;28;20441;-72
2021/12/18 06:10:23;;;;;;;1999.90;999.90;;;7.40;99.90;;;;;;5088231;28;21022;-72
2021/12/18 06:12:50;;;;;;;1999.90;999.90;;;7.50;99.90;;;;;;5089868;28;20505;-72
2021/12/18 06:15:17;;;;;;;1999.90;999.90;;;7.40;99.90;;;;;;5088595;28;20510;-71
2021/12/18 06:17:44;;;;;;;1999.90;999.90;;;7.40;99.90;;;;;;5088515;28;20961;-71
2021/12/18 06:20:12;;;;;;;1999.90;999.90;;;7.40;99.90;;;;;;5088314;28;20925;-72
2021/12/18 06:22:39;;;;;;;1999.90;999.90;;;7.40;99.90;;;;;;5088662;28;20444;-72
2021/12/18 06:25:07;;;;;;;1999.90;999.90;;;7.40;99.90;;;;;;5089607;28;20444;-71
2021/12/18 06:27:35;;;;;;;1999.90;999.90;;;7.40;99.90;;;;;;5091475;28;20861;-72
2021/12/18 06:30:02;;;;;;;1999.90;999.90;;;7.40;99.90;;;;;;5092284;28;20984;-72
2021/12/18 06:32:29;;;;;;;1999.90;999.90;;;7.40;99.90;;;;;;5092585;28;20956;-71
2021/12/18 06:34:56;;;;;;;1999.90;999.90;;;7.30;99.90;;;;;;5092752;28;20498;-72
2021/12/18 06:37:24;;;;;;;1999.90;999.90;;;7.30;99.90;;;;;;5094553;28;20445;-73
2021/12/18 06:39:51;;;;;;;1999.90;999.90;;;7.30;99.90;;;;;;5094531;28;20440;-68
2021/12/18 06:42:18;;;;;;;1999.90;999.90;;;7.30;99.90;;;;;;5088818;28;20446;-74
2021/12/18 06:44:45;;;;;;;1999.90;999.90;;;7.40;99.90;;;;;;5088711;28;20998;-72
2021/12/18 06:47:11;;;;;;;1999.90;999.90;;;7.40;99.90;;;;;;5090040;28;20448;-72
2021/12/18 06:49:38;;;;;;;1999.90;999.90;;;7.40;99.90;;;;;;5089688;28;20506;-71
2021/12/18 06:52:05;;;;;;;1999.90;999.90;;;7.30;99.90;;;;;;5093073;28;20472;-72
2021/12/18 06:54:34;;;;;;;1999.90;999.90;;;7.30;99.90;;;;;;5092877;28;20449;-71
2021/12/18 06:57:01;;;;;;;1999.90;999.90;;;7.30;99.90;;;;;;5091970;28;21040;-72
2021/12/18 06:59:28;;;;;;;1999.90;999.90;;;7.30;99.90;;;;;;5086044;28;20441;-74
2021/12/18 07:01:55;;;;;;;1999.90;999.90;;;7.30;99.90;;;;;;5088428;28;21063;-72
2021/12/18 07:04:24;;;;;;;1999.90;999.90;;;7.30;99.90;;;;;;5087262;28;20449;-71
2021/12/18 07:06:51;;;;;;;1999.90;999.90;;;7.40;99.90;;;;;;5088748;28;20607;-72
2021/12/18 07:09:18;;;;;;;1999.90;999.90;;;7.40;99.90;;;;;;5089292;28;20620;-71
2021/12/18 07:11:46;;;;;;;1999.90;999.90;;;7.40;99.90;;;;;;5087811;28;20534;-72
2021/12/18 07:14:13;;;;;;;1999.90;999.90;;;7.30;99.90;;;;;;5088666;28;20476;-71
2021/12/18 07:16:40;;;;;;;1999.90;999.90;;;7.40;99.90;;;;;;5087911;28;20537;-71
2021/12/18 07:19:06;;;;;;;1999.90;999.90;;;7.40;99.90;;;;;;5088921;28;20948;-72
2021/12/18 07:21:33;;;;;;;1999.90;999.90;;;7.40;99.90;;;;;;5088343;28;20476;-71
2021/12/18 07:23:59;;;;;;;1999.90;999.90;;;7.40;99.90;;;;;;5089214;28;20452;-70
2021/12/18 07:26:27;;;;;;;1999.90;999.90;;;7.40;99.90;;;;;;5088736;28;20510;-72
2021/12/18 07:28:55;;;;;;;1999.90;999.90;;;7.40;99.90;;;;;;5089166;28;20444;-72
2021/12/18 07:31:22;;;;;;;1999.90;999.90;;;7.30;99.90;;;;;;5083999;28;20542;-72
2021/12/18 07:33:49;;;;;;;1999.90;999.90;;;7.30;99.90;;;;;;5091783;28;20502;-74
2021/12/18 07:36:16;;;;;;;1999.90;999.90;;;7.40;99.90;;;;;;5092048;28;20452;-72
2021/12/18 07:38:43;;;;;;;1999.90;999.90;;;7.40;99.90;;;;;;5092697;28;20460;-73
2021/12/18 07:41:10;;;;;;;1999.90;999.90;;;7.40;99.90;;;;;;5091165;28;21056;-71
2021/12/18 07:43:37;;;;;;;1999.90;999.90;;;7.40;99.90;;;;;;5091827;28;20449;-72
2021/12/18 07:46:05;;;;;;;1999.90;999.90;;;7.50;99.90;;;;;;5092017;28;20449;-72
2021/12/18 07:48:32;;;;;;;1999.90;999.90;;;7.50;99.90;;;;;;5092557;28;20494;-72
2021/12/18 07:50:58;;;;;;;1999.90;999.90;;;7.40;99.90;;;;;;5092061;28;20492;-72
2021/12/18 07:53:25;;;;;;;1999.90;999.90;;;7.40;99.90;;;;;;5091470;28;20468;-73
2021/12/18 07:55:52;;;;;;;1999.90;999.90;;;7.40;99.90;;;;;;5092027;28;20466;-71
2021/12/18 07:58:19;;;;;;;1999.90;999.90;;;7.40;99.90;;;;;;5089662;28;20464;-72
2021/12/18 08:00:47;;;;;;;1999.90;999.90;;;7.40;99.90;;;;;;5091173;22;20495;-67
2021/12/18 08:03:15;;;;;;;1999.90;999.90;;;7.40;99.90;;;;;;5067077;28;20452;-69
2021/12/18 08:05:41;;;;;;;1999.90;999.90;;;7.40;99.90;;;;;;5066683;28;20445;-70
2021/12/18 08:08:08;;;;;;;1999.90;999.90;;;7.40;99.90;;;;;;5068348;28;20495;-73
2021/12/18 08:10:34;;;;;;;1999.90;999.90;;;7.40;99.90;;;;;;5071535;28;20558;-69
2021/12/18 08:13:01;;;;;;;1999.90;999.90;;;7.40;99.90;;;;;;5073704;28;20464;-68
2021/12/18 08:15:28;;;;;;;1999.90;999.90;;;7.40;99.90;;;;;;5072929;28;20937;-69
2021/12/18 08:17:57;;;;;;;1999.90;999.90;;;7.40;99.90;;;;;;5083476;28;20875;-71
2021/12/18 08:20:26;;;;;;;1999.90;999.90;;;7.50;99.90;;;;;;5074520;28;20482;-69
2021/12/18 08:22:53;;;;;;;1999.90;999.90;;;7.40;99.90;;;;;;5073621;28;20507;-70
2021/12/18 08:25:20;;;;;;;1999.90;999.90;;;7.40;99.90;;;;;;5076986;28;20453;-70
2021/12/18 08:27:46;;;;;;;1999.90;999.90;;;7.50;99.90;;;;;;5075495;28;20499;-70
2021/12/18 08:30:14;;;;;;;1999.90;999.90;;;7.40;99.90;;;;;;5074032;28;20481;-70
2021/12/18 08:32:43;;;;;;;1999.90;999.90;;;7.50;99.90;;;;;;5082670;28;20437;-70
2021/12/18 08:35:10;;;;;;;1999.90;999.90;;;7.50;99.90;;;;;;5093936;28;20460;-70
2021/12/18 08:37:38;;;;;;;1999.90;999.90;;;7.50;99.90;;;;;;5086963;28;20444;-71
2021/12/18 08:40:06;;;;;;;1999.90;999.90;;;7.60;99.90;;;;;;5081624;28;20466;-69
2021/12/18 08:42:33;;;;;;;1999.90;999.90;;;7.60;99.90;;;;;;5073421;28;20446;-70
2021/12/18 08:45:00;;;;;;;1999.90;999.90;;;7.60;99.90;;;;;;5075412;28;20511;-70
2021/12/18 08:47:26;;;;;;;1999.90;999.90;;;7.60;99.90;;;;;;5073694;28;20453;-71
2021/12/18 08:49:53;;;;;;;1999.90;999.90;;;7.70;99.90;;;;;;5074038;28;20485;-69
2021/12/18 08:52:21;;;;;;;1999.90;999.90;;;7.70;99.90;;;;;;5073740;28;21137;-69
2021/12/18 08:54:49;;;;;;;1999.90;999.90;;;7.60;99.90;;;;;;5074274;28;21286;-69
2021/12/18 08:57:16;;;;;;;1999.90;999.90;;;7.70;99.90;;;;;;5075199;28;20495;-67
2021/12/18 08:59:42;;;;;;;1999.90;999.90;;;7.70;99.90;;;;;;5076501;28;20481;-67
2021/12/18 09:02:12;;;;;;;1999.90;999.90;;;7.80;99.90;;;;;;5075546;28;20449;-67
2021/12/18 09:04:39;;;;;;;1999.90;999.90;;;7.70;99.90;;;;;;5076472;28;21020;-67
2021/12/18 09:07:07;;;;;;;1999.90;999.90;;;7.70;99.90;;;;;;5074935;28;20552;-68
2021/12/18 09:09:34;;;;;;;1999.90;999.90;;;7.70;99.90;;;;;;5080181;28;20467;-68
2021/12/18 09:12:02;;;;;;;1999.90;999.90;;;7.70;99.90;;;;;;5078795;28;20449;-67
2021/12/18 09:14:29;;;;;;;1999.90;999.90;;;7.70;99.90;;;;;;5075795;28;20949;-67
2021/12/18 09:16:56;;;;;;;1999.90;999.90;;;7.70;99.90;;;;;;5077655;28;20442;-66
2021/12/18 09:19:22;;;;;;;1999.90;999.90;;;7.70;99.90;;;;;;5091005;28;20465;-68
2021/12/18 09:21:49;;;;;;;1999.90;999.90;;;7.70;99.90;;;;;;5086208;28;20444;-70
2021/12/18 09:24:16;;;;;;;1999.90;999.90;;;7.70;99.90;;;;;;5074113;28;20449;-69
2021/12/18 09:26:42;;;;;;;1999.90;999.90;;;7.80;99.90;;;;;;5071823;28;20503;-69
2021/12/18 09:29:10;;;;;;;1999.90;999.90;;;7.80;99.90;;;;;;5073150;28;20522;-70
2021/12/18 09:31:37;;;;;;;1999.90;999.90;;;7.80;99.90;;;;;;5072846;28;20477;-71
2021/12/18 09:34:04;;;;;;;1999.90;999.90;;;7.90;99.90;;;;;;5073159;28;20449;-70
2021/12/18 09:36:31;;;;;;;1999.90;999.90;;;8.00;99.90;;;;;;5073321;28;20449;-70
2021/12/18 09:38:57;;;;;;;1999.90;999.90;;;8.10;99.90;;;;;;5073158;28;20938;-67
2021/12/18 09:41:25;;;;;;;1999.90;999.90;;;8.10;99.90;;;;;;5073840;28;20488;-69
2021/12/18 09:43:52;;;;;;;1999.90;999.90;;;8.20;99.90;;;;;;5074736;28;20446;-68
2021/12/18 09:46:20;;;;;;;1999.90;999.90;;;8.30;99.90;;;;;;5074606;28;20445;-69
2021/12/18 09:48:46;;;;;;;1999.90;999.90;;;8.30;99.90;;;;;;5080086;28;20444;-68
2021/12/18 09:51:23;;;;;;;1999.90;999.90;;;8.40;99.90;;;;;;5093308;28;20480;-65
2021/12/18 09:53:50;;;;;;;1999.90;999.90;;;8.40;99.90;;;;;;5074853;28;20445;-68
2021/12/18 09:56:16;;;;;;;1999.90;999.90;;;8.40;99.90;;;;;;5091260;28;20452;-68
2021/12/18 09:58:43;;;;;;;1999.90;999.90;;;8.50;99.90;;;;;;5084706;28;20475;-69
2021/12/18 10:01:10;;;;;;;1999.90;999.90;;;8.50;99.90;;;;;;5072558;28;20485;-68
2021/12/18 10:03:45;;;;;;;1999.90;999.90;;;8.60;99.90;;;;;;5079267;28;20494;-69
2021/12/18 10:06:37;;;;;;;1999.90;999.90;;;8.70;99.90;;;;;;5084340;28;20449;-68
2021/12/18 10:09:06;;;;;;;1999.90;999.90;;;8.70;99.90;;;;;;5081949;28;20456;-68
2021/12/18 10:11:33;;;;;;;1999.90;999.90;;;8.80;99.90;;;;;;5092334;28;20484;-69
2021/12/18 10:14:03;;;;;;;1999.90;999.90;;;8.80;99.90;;;;;;5083372;28;20445;-67
2021/12/18 10:16:31;;;;;;;1999.90;999.90;;;8.90;99.90;;;;;;5072541;28;20460;-67
2021/12/18 10:19:00;;;;;;;1999.90;999.90;;;8.90;99.90;;;;;;5081009;28;21031;-68
2021/12/18 10:21:29;;;;;;;1999.90;999.90;;;8.90;99.90;;;;;;5092565;28;20452;-68
2021/12/18 10:23:58;;;;;;;1999.90;999.90;;;8.90;99.90;;;;;;5073992;28;20453;-68
2021/12/18 10:26:35;;;;;;;1999.90;999.90;;;8.80;99.90;;;;;;5072381;28;20449;-68
2021/12/18 10:29:03;;;;;;;1999.90;999.90;;;8.90;99.90;;;;;;5080206;28;20447;-66
2021/12/18 10:31:44;;;;;;;1999.90;999.90;;;8.90;99.90;;;;;;5091476;28;20476;-67
2021/12/18 10:34:17;;;;;;;1999.90;999.90;;;8.90;99.90;;;;;;5090975;28;20460;-68
2021/12/18 10:37:11;;;;;;;1999.90;999.90;;;8.90;99.90;;;;;;5089377;28;21026;-68
2021/12/18 10:39:39;;;;;;;1999.90;999.90;;;8.90;99.90;;;;;;5071734;28;20520;-67
2021/12/18 10:42:16;;;;;;;1999.90;999.90;;;9.00;99.90;;;;;;5072012;28;20515;-69
2021/12/18 10:44:58;;;;;;;1999.90;999.90;;;9.10;99.90;;;;;;5073768;28;20806;-66
2021/12/18 10:47:25;;;;;;;1999.90;999.90;;;9.10;99.90;;;;;;5073145;28;20479;-71
2021/12/18 10:49:53;;;;;;;1999.90;999.90;;;9.10;99.90;;;;;;5072121;28;20473;-66
2021/12/18 10:52:37;;;;;;;1999.90;999.90;;;9.10;99.90;;;;;;5072681;28;20469;-69
2021/12/18 10:55:05;;;;;;;1999.90;999.90;;;9.00;99.90;;;;;;5074209;28;20476;-69
2021/12/18 10:57:31;;;;;;;1999.90;999.90;;;8.90;99.90;;;;;;5077877;28;20478;-69
2021/12/18 10:59:58;;;;;;;1999.90;999.90;;;8.80;99.90;;;;;;5082970;28;20470;-67
2021/12/18 11:02:27;;;;;;;1999.90;999.90;;;8.70;99.90;;;;;;5073963;28;20445;-67
2021/12/18 11:05:13;;;;;;;1999.90;999.90;;;8.70;99.90;;;;;;5074840;28;20445;-67
2021/12/18 11:07:43;;;;;;;1999.90;999.90;;;8.70;99.90;;;;;;5074382;28;20441;-68
2021/12/18 11:10:39;;;;;;;1999.90;999.90;;;8.60;99.90;;;;;;5074341;28;20568;-67
2021/12/18 11:15:50;;;;;;;1999.90;999.90;;;8.50;99.90;;;;;;5074685;28;20423;-68
2021/12/18 11:18:18;;;;;;;1999.90;999.90;;;8.60;99.90;;;;;;5074383;28;20510;-68
2021/12/18 11:20:49;;;;;;;1999.90;999.90;;;8.50;99.90;;;;;;5074274;28;20503;-68
2021/12/18 11:23:21;;;;;;;1999.90;999.90;;;8.50;99.90;;;;;;5073378;28;21044;-67
2021/12/18 11:25:49;;;;;;;1999.90;999.90;;;8.50;99.90;;;;;;5073564;28;20433;-69
2021/12/18 11:28:17;;;;;;;1999.90;999.90;;;8.50;99.90;;;;;;5071451;28;20933;-70
2021/12/18 11:30:44;;;;;;;1999.90;999.90;;;8.60;99.90;;;;;;5070830;28;20481;-71
2021/12/18 11:33:11;;;;;;;1999.90;999.90;;;8.70;99.90;;;;;;5082048;28;20448;-70
2021/12/18 11:35:37;;;;;;;1999.90;999.90;;;8.70;99.90;;;;;;5084944;28;20445;-69
2021/12/18 11:38:08;;;;;;;1999.90;999.90;;;8.70;99.90;;;;;;5071349;28;20825;-71
2021/12/18 11:40:38;;;;;;;1999.90;999.90;;;8.70;99.90;;;;;;5076646;28;20541;-70
2021/12/18 11:43:07;;;;;;;1999.90;999.90;;;8.70;99.90;;;;;;5093918;28;20940;-71
2021/12/18 11:45:35;;;;;;;1999.90;999.90;;;8.70;99.90;;;;;;5077364;28;20473;-67
2021/12/18 11:48:03;;;;;;;1999.90;999.90;;;8.70;99.90;;;;;;5074965;28;20939;-66
2021/12/18 11:50:32;;;;;;;1999.90;999.90;;;8.60;99.90;;;;;;5073927;28;21043;-67
2021/12/18 11:53:02;;;;;;;1999.90;999.90;;;8.50;99.90;;;;;;5075043;28;21134;-67
2021/12/18 11:55:32;;;;;;;1999.90;999.90;;;8.50;99.90;;;;;;5074422;28;20450;-67
2021/12/18 11:58:00;;;;;;;1999.90;999.90;;;8.50;99.90;;;;;;5075085;28;20449;-67
2021/12/18 12:00:51;;;;;;;1999.90;999.90;;;8.50;99.90;;;;;;5074240;28;20568;-70
2021/12/18 12:03:35;;;;;;;1999.90;999.90;;;8.50;99.90;;;;;;5054761;28;20449;-69
2021/12/18 12:06:04;;;;;;;1999.90;999.90;;;8.50;99.90;;;;;;5072841;28;20450;-67
2021/12/18 12:08:37;;;;;;;1999.90;999.90;;;8.50;99.90;;;;;;5074606;28;20507;-66
2021/12/18 12:11:15;;;;;;;1999.90;999.90;;;8.60;99.90;;;;;;5077660;28;20484;-68
2021/12/18 12:14:20;;;;;;;1999.90;999.90;;;8.60;99.90;;;;;;5084064;28;20441;-67
2021/12/18 12:17:17;;;;;;;1999.90;999.90;;;8.60;99.90;;;;;;5047103;28;20869;-68
2021/12/18 12:20:02;;;;;;;1999.90;999.90;;;8.60;99.90;;;;;;5032368;28;20475;-67
2021/12/18 12:22:53;;;;;;;1999.90;999.90;;;8.70;99.90;;;;;;5077155;28;22057;-67
2021/12/18 12:25:34;;;;;;;1999.90;999.90;;;8.70;99.90;;;;;;5074860;28;20449;-68
2021/12/18 12:28:05;;;;;;;1999.90;999.90;;;8.80;99.90;;;;;;5090559;28;20464;-67
2021/12/18 12:30:39;;;;;;;1999.90;999.90;;;8.90;99.90;;;;;;5094630;28;20468;-67
2021/12/18 12:33:07;;;;;;;1999.90;999.90;;;8.90;99.90;;;;;;5093271;28;20493;-67
2021/12/18 12:36:04;;;;;;;1999.90;999.90;;;8.90;99.90;;;;;;5077436;28;20447;-67
2021/12/18 12:38:34;;;;;;;1999.90;999.90;;;8.90;99.90;;;;;;5028116;28;20464;-67
2021/12/18 12:41:36;;;;;;;1999.90;999.90;;;8.90;99.90;;;;;;5073916;28;20461;-68
2021/12/18 12:44:15;;;;;;;1999.90;999.90;;;8.90;99.90;;;;;;5060500;28;20444;-69
2021/12/18 12:46:42;;;;;;;1999.90;999.90;;;8.90;99.90;;;;;;5094527;28;20932;-68
2021/12/18 12:49:11;;;;;;;1999.90;999.90;;;8.90;99.90;;;;;;5092937;28;20501;-68